Terminal Aerodrome Forecast
Issued by NWS Lake Charles, LA

Home | Current Version | Previous Version | Text Only | Print | Product List | Glossary On
Versions: 1 2 3 4 5 6 7 8 9 10 11 12 13 14 15 16 17
532
FTUS44 KLCH 291132
TAFLCH
TAF
KLCH 291132Z 2912/3012 07009KT P6SM VCSH SCT005 OVC200
     FM291600 09012KT P6SM -RA VCTS FEW015CB SCT025 BKN050
      TEMPO 2917/2921 2SM TSRA SCT008 BKN015CB
     FM300100 06005KT P6SM FEW050 BKN200=

USA.gov is the U.S. government's official web portal to all federal, state and local government web resources and services.